sensor_id;sensor_type;location;lat;lon;timestamp;temperature;humidity
1812;DHT22;904;47.814;11.134;2022-11-21T00:00:58;6.10;80.30
1812;DHT22;904;47.814;11.134;2022-11-21T00:03:26;6.10;80.10
1812;DHT22;904;47.814;11.134;2022-11-21T00:05:53;6.10;80.70
1812;DHT22;904;47.814;11.134;2022-11-21T00:08:22;6.00;80.40
1812;DHT22;904;47.814;11.134;2022-11-21T00:10:49;6.00;80.70
1812;DHT22;904;47.814;11.134;2022-11-21T00:13:19;6.00;81.10
1812;DHT22;904;47.814;11.134;2022-11-21T00:15:47;5.90;81.10
1812;DHT22;904;47.814;11.134;2022-11-21T00:18:15;6.00;81.50
1812;DHT22;904;47.814;11.134;2022-11-21T00:20:42;6.00;81.40
1812;DHT22;904;47.814;11.134;2022-11-21T00:23:10;6.00;81.10
1812;DHT22;904;47.814;11.134;2022-11-21T00:25:39;6.00;81.20
1812;DHT22;904;47.814;11.134;2022-11-21T00:28:06;6.00;81.00
1812;DHT22;904;47.814;11.134;2022-11-21T00:30:33;6.00;81.30
1812;DHT22;904;47.814;11.134;2022-11-21T00:33:01;5.90;81.20
1812;DHT22;904;47.814;11.134;2022-11-21T00:35:30;5.90;81.00
1812;DHT22;904;47.814;11.134;2022-11-21T00:37:57;5.90;80.90
1812;DHT22;904;47.814;11.134;2022-11-21T00:40:24;6.00;80.70
1812;DHT22;904;47.814;11.134;2022-11-21T00:42:53;6.00;80.90
1812;DHT22;904;47.814;11.134;2022-11-21T00:45:20;6.00;80.60
1812;DHT22;904;47.814;11.134;2022-11-21T00:47:47;6.00;80.90
1812;DHT22;904;47.814;11.134;2022-11-21T00:50:15;6.10;81.00
1812;DHT22;904;47.814;11.134;2022-11-21T00:52:42;6.20;81.00
1812;DHT22;904;47.814;11.134;2022-11-21T00:55:09;6.20;80.70
1812;DHT22;904;47.814;11.134;2022-11-21T00:57:37;6.30;80.50
1812;DHT22;904;47.814;11.134;2022-11-21T01:00:07;6.30;80.40
1812;DHT22;904;47.814;11.134;2022-11-21T01:02:34;6.30;80.20
1812;DHT22;904;47.814;11.134;2022-11-21T01:05:02;6.30;80.30
1812;DHT22;904;47.814;11.134;2022-11-21T01:07:29;6.40;80.30
1812;DHT22;904;47.814;11.134;2022-11-21T01:09:57;6.40;79.70
1812;DHT22;904;47.814;11.134;2022-11-21T01:12:24;6.40;80.00
1812;DHT22;904;47.814;11.134;2022-11-21T01:14:51;6.40;80.00
1812;DHT22;904;47.814;11.134;2022-11-21T01:17:20;6.50;80.00
1812;DHT22;904;47.814;11.134;2022-11-21T01:19:47;6.50;79.70
1812;DHT22;904;47.814;11.134;2022-11-21T01:22:15;6.50;79.40
1812;DHT22;904;47.814;11.134;2022-11-21T01:24:42;6.60;79.90
1812;DHT22;904;47.814;11.134;2022-11-21T01:27:09;6.60;78.80
1812;DHT22;904;47.814;11.134;2022-11-21T01:29:36;6.60;78.60
1812;DHT22;904;47.814;11.134;2022-11-21T01:32:04;6.60;78.80
1812;DHT22;904;47.814;11.134;2022-11-21T01:34:33;6.60;78.60
1812;DHT22;904;47.814;11.134;2022-11-21T01:37:00;6.60;78.70
1812;DHT22;904;47.814;11.134;2022-11-21T01:39:27;6.70;78.70
1812;DHT22;904;47.814;11.134;2022-11-21T01:41:54;6.60;78.70
1812;DHT22;904;47.814;11.134;2022-11-21T01:44:23;6.60;78.60
1812;DHT22;904;47.814;11.134;2022-11-21T01:46:55;6.60;78.20
1812;DHT22;904;47.814;11.134;2022-11-21T01:49:24;6.60;77.70
1812;DHT22;904;47.814;11.134;2022-11-21T01:51:59;6.50;77.90
1812;DHT22;904;47.814;11.134;2022-11-21T01:54:31;6.60;78.20
1812;DHT22;904;47.814;11.134;2022-11-21T01:57:02;6.60;78.10
1812;DHT22;904;47.814;11.134;2022-11-21T01:59:34;6.60;77.90
1812;DHT22;904;47.814;11.134;2022-11-21T02:02:05;6.60;77.90
1812;DHT22;904;47.814;11.134;2022-11-21T02:04:33;6.60;78.00
1812;DHT22;904;47.814;11.134;2022-11-21T02:07:05;6.60;77.80
1812;DHT22;904;47.814;11.134;2022-11-21T02:09:36;6.70;77.80
1812;DHT22;904;47.814;11.134;2022-11-21T02:12:10;6.70;78.10
1812;DHT22;904;47.814;11.134;2022-11-21T02:14:41;6.60;78.20
1812;DHT22;904;47.814;11.134;2022-11-21T02:17:10;6.60;78.60
1812;DHT22;904;47.814;11.134;2022-11-21T02:19:42;6.60;78.80
1812;DHT22;904;47.814;11.134;2022-11-21T02:22:17;6.60;78.80
1812;DHT22;904;47.814;11.134;2022-11-21T02:24:59;6.60;78.90
1812;DHT22;904;47.814;11.134;2022-11-21T02:27:27;6.60;79.00
1812;DHT22;904;47.814;11.134;2022-11-21T02:29:54;6.60;78.80
1812;DHT22;904;47.814;11.134;2022-11-21T02:32:23;6.50;78.50
1812;DHT22;904;47.814;11.134;2022-11-21T02:34:50;6.60;78.70
1812;DHT22;904;47.814;11.134;2022-11-21T02:37:17;6.50;78.40
1812;DHT22;904;47.814;11.134;2022-11-21T02:39:46;6.50;78.00
1812;DHT22;904;47.814;11.134;2022-11-21T02:42:22;6.50;78.00
1812;DHT22;904;47.814;11.134;2022-11-21T02:44:55;6.50;78.00
1812;DHT22;904;47.814;11.134;2022-11-21T02:47:23;6.50;77.50
1812;DHT22;904;47.814;11.134;2022-11-21T02:49:56;6.50;77.40
1812;DHT22;904;47.814;11.134;2022-11-21T02:52:25;6.50;77.20
1812;DHT22;904;47.814;11.134;2022-11-21T02:54:53;6.50;76.90
1812;DHT22;904;47.814;11.134;2022-11-21T02:57:22;6.40;76.40
1812;DHT22;904;47.814;11.134;2022-11-21T02:59:49;6.40;76.70
1812;DHT22;904;47.814;11.134;2022-11-21T03:02:16;6.40;76.90
1812;DHT22;904;47.814;11.134;2022-11-21T03:04:44;6.40;76.50
1812;DHT22;904;47.814;11.134;2022-11-21T03:07:11;6.40;76.30
1812;DHT22;904;47.814;11.134;2022-11-21T03:09:39;6.40;76.10
1812;DHT22;904;47.814;11.134;2022-11-21T03:12:07;6.40;75.50
1812;DHT22;904;47.814;11.134;2022-11-21T03:14:36;6.30;75.10
1812;DHT22;904;47.814;11.134;2022-11-21T03:17:03;6.30;74.90
1812;DHT22;904;47.814;11.134;2022-11-21T03:19:31;6.30;74.60
1812;DHT22;904;47.814;11.134;2022-11-21T03:21:58;6.30;74.60
1812;DHT22;904;47.814;11.134;2022-11-21T03:24:25;6.30;74.20
1812;DHT22;904;47.814;11.134;2022-11-21T03:26:53;6.30;73.90
1812;DHT22;904;47.814;11.134;2022-11-21T03:29:20;6.30;73.90
1812;DHT22;904;47.814;11.134;2022-11-21T03:31:48;6.20;73.50
1812;DHT22;904;47.814;11.134;2022-11-21T03:34:16;6.20;73.40
1812;DHT22;904;47.814;11.134;2022-11-21T03:36:43;6.30;73.30
1812;DHT22;904;47.814;11.134;2022-11-21T03:39:11;6.30;72.80
1812;DHT22;904;47.814;11.134;2022-11-21T03:41:38;6.30;72.60
1812;DHT22;904;47.814;11.134;2022-11-21T03:44:07;6.30;72.40
1812;DHT22;904;47.814;11.134;2022-11-21T03:46:36;6.40;72.60
1812;DHT22;904;47.814;11.134;2022-11-21T03:49:06;6.40;72.20
1812;DHT22;904;47.814;11.134;2022-11-21T03:51:36;6.40;71.50
1812;DHT22;904;47.814;11.134;2022-11-21T03:54:04;6.50;71.60
1812;DHT22;904;47.814;11.134;2022-11-21T03:56:32;6.50;71.90
1812;DHT22;904;47.814;11.134;2022-11-21T03:59:00;6.50;71.70
1812;DHT22;904;47.814;11.134;2022-11-21T04:01:28;6.50;71.30
1812;DHT22;904;47.814;11.134;2022-11-21T04:03:55;6.60;71.40
1812;DHT22;904;47.814;11.134;2022-11-21T04:06:23;6.60;71.40
1812;DHT22;904;47.814;11.134;2022-11-21T04:08:51;6.70;71.80
1812;DHT22;904;47.814;11.134;2022-11-21T04:11:19;6.70;72.80
1812;DHT22;904;47.814;11.134;2022-11-21T04:13:48;6.70;73.50
1812;DHT22;904;47.814;11.134;2022-11-21T04:16:17;6.70;74.70
1812;DHT22;904;47.814;11.134;2022-11-21T04:18:44;6.70;75.70
1812;DHT22;904;47.814;11.134;2022-11-21T04:21:11;6.70;76.50
1812;DHT22;904;47.814;11.134;2022-11-21T04:23:40;6.80;76.90
1812;DHT22;904;47.814;11.134;2022-11-21T04:26:09;6.70;77.20
1812;DHT22;904;47.814;11.134;2022-11-21T04:28:37;6.70;77.50
1812;DHT22;904;47.814;11.134;2022-11-21T04:31:05;6.70;77.50
1812;DHT22;904;47.814;11.134;2022-11-21T04:33:33;6.80;77.90
1812;DHT22;904;47.814;11.134;2022-11-21T04:36:01;6.80;77.50
1812;DHT22;904;47.814;11.134;2022-11-21T04:38:28;6.80;77.70
1812;DHT22;904;47.814;11.134;2022-11-21T04:40:56;6.80;77.70
1812;DHT22;904;47.814;11.134;2022-11-21T04:43:24;6.80;77.20
1812;DHT22;904;47.814;11.134;2022-11-21T04:45:55;6.90;77.20
1812;DHT22;904;47.814;11.134;2022-11-21T04:48:23;6.90;76.90
1812;DHT22;904;47.814;11.134;2022-11-21T04:50:50;6.90;76.90
1812;DHT22;904;47.814;11.134;2022-11-21T04:53:18;6.80;76.90
1812;DHT22;904;47.814;11.134;2022-11-21T04:55:45;6.80;76.90
1812;DHT22;904;47.814;11.134;2022-11-21T04:58:15;6.70;76.60
1812;DHT22;904;47.814;11.134;2022-11-21T05:00:43;6.60;76.90
1812;DHT22;904;47.814;11.134;2022-11-21T05:03:16;6.50;77.80
1812;DHT22;904;47.814;11.134;2022-11-21T05:05:43;6.40;77.80
1812;DHT22;904;47.814;11.134;2022-11-21T05:08:11;6.40;78.00
1812;DHT22;904;47.814;11.134;2022-11-21T05:10:38;6.30;78.40
1812;DHT22;904;47.814;11.134;2022-11-21T05:13:21;6.30;78.50
1812;DHT22;904;47.814;11.134;2022-11-21T05:15:54;6.30;78.40
1812;DHT22;904;47.814;11.134;2022-11-21T05:18:22;6.30;78.60
1812;DHT22;904;47.814;11.134;2022-11-21T05:20:51;6.20;78.90
1812;DHT22;904;47.814;11.134;2022-11-21T05:23:18;6.30;79.20
1812;DHT22;904;47.814;11.134;2022-11-21T05:25:45;6.30;79.50
1812;DHT22;904;47.814;11.134;2022-11-21T05:28:13;6.30;79.60
1812;DHT22;904;47.814;11.134;2022-11-21T05:30:42;6.20;79.10
1812;DHT22;904;47.814;11.134;2022-11-21T05:33:10;6.30;79.00
1812;DHT22;904;47.814;11.134;2022-11-21T05:35:38;6.30;79.20
1812;DHT22;904;47.814;11.134;2022-11-21T05:38:06;6.30;79.20
1812;DHT22;904;47.814;11.134;2022-11-21T05:40:33;6.30;79.60
1812;DHT22;904;47.814;11.134;2022-11-21T05:43:01;6.40;79.60
1812;DHT22;904;47.814;11.134;2022-11-21T05:45:49;6.40;79.60
1812;DHT22;904;47.814;11.134;2022-11-21T05:48:21;6.40;79.70
1812;DHT22;904;47.814;11.134;2022-11-21T05:50:49;6.40;81.00
1812;DHT22;904;47.814;11.134;2022-11-21T05:53:17;6.40;82.20
1812;DHT22;904;47.814;11.134;2022-11-21T05:55:44;6.40;82.70
1812;DHT22;904;47.814;11.134;2022-11-21T05:58:12;6.40;83.30
1812;DHT22;904;47.814;11.134;2022-11-21T06:00:39;6.50;84.50
1812;DHT22;904;47.814;11.134;2022-11-21T06:03:10;6.50;84.90
1812;DHT22;904;47.814;11.134;2022-11-21T06:05:59;6.50;85.70
1812;DHT22;904;47.814;11.134;2022-11-21T06:08:28;6.50;85.40
1812;DHT22;904;47.814;11.134;2022-11-21T06:10:55;6.50;85.10
1812;DHT22;904;47.814;11.134;2022-11-21T06:13:23;6.50;85.10
1812;DHT22;904;47.814;11.134;2022-11-21T06:15:53;6.50;85.00
1812;DHT22;904;47.814;11.134;2022-11-21T06:18:23;6.50;84.70
1812;DHT22;904;47.814;11.134;2022-11-21T06:20:51;6.50;84.50
1812;DHT22;904;47.814;11.134;2022-11-21T06:23:19;6.50;84.50
1812;DHT22;904;47.814;11.134;2022-11-21T06:25:58;6.50;84.30
1812;DHT22;904;47.814;11.134;2022-11-21T06:28:28;6.50;84.30
1812;DHT22;904;47.814;11.134;2022-11-21T06:31:02;6.50;84.70
1812;DHT22;904;47.814;11.134;2022-11-21T06:33:31;6.50;85.10
1812;DHT22;904;47.814;11.134;2022-11-21T06:36:01;6.50;85.30
1812;DHT22;904;47.814;11.134;2022-11-21T06:38:29;6.50;85.70
1812;DHT22;904;47.814;11.134;2022-11-21T06:40:56;6.50;85.60
1812;DHT22;904;47.814;11.134;2022-11-21T06:43:23;6.50;85.70
1812;DHT22;904;47.814;11.134;2022-11-21T06:45:50;6.50;85.30
1812;DHT22;904;47.814;11.134;2022-11-21T06:48:17;6.30;84.40
1812;DHT22;904;47.814;11.134;2022-11-21T06:50:46;6.20;83.90
1812;DHT22;904;47.814;11.134;2022-11-21T06:53:13;6.10;83.70
1812;DHT22;904;47.814;11.134;2022-11-21T06:55:40;6.10;83.90
1812;DHT22;904;47.814;11.134;2022-11-21T06:58:07;6.10;84.50
1812;DHT22;904;47.814;11.134;2022-11-21T07:00:34;6.10;83.70
1812;DHT22;904;47.814;11.134;2022-11-21T07:03:02;6.00;83.40
1812;DHT22;904;47.814;11.134;2022-11-21T07:05:29;6.00;83.40
1812;DHT22;904;47.814;11.134;2022-11-21T07:07:59;6.00;83.10
1812;DHT22;904;47.814;11.134;2022-11-21T07:10:26;6.00;82.90
1812;DHT22;904;47.814;11.134;2022-11-21T07:12:56;6.00;83.60
1812;DHT22;904;47.814;11.134;2022-11-21T07:15:40;5.90;83.70
1812;DHT22;904;47.814;11.134;2022-11-21T07:18:07;5.90;83.70
1812;DHT22;904;47.814;11.134;2022-11-21T07:20:34;5.90;84.90
1812;DHT22;904;47.814;11.134;2022-11-21T07:23:03;5.90;83.90
1812;DHT22;904;47.814;11.134;2022-11-21T07:25:30;5.70;83.90
1812;DHT22;904;47.814;11.134;2022-11-21T07:27:57;5.70;84.80
1812;DHT22;904;47.814;11.134;2022-11-21T07:30:24;5.60;84.90
1812;DHT22;904;47.814;11.134;2022-11-21T07:32:54;5.60;85.30
1812;DHT22;904;47.814;11.134;2022-11-21T07:35:21;5.60;85.40
1812;DHT22;904;47.814;11.134;2022-11-21T07:37:49;5.60;85.40
1812;DHT22;904;47.814;11.134;2022-11-21T07:40:18;5.60;86.00
1812;DHT22;904;47.814;11.134;2022-11-21T07:42:45;5.60;86.80
1812;DHT22;904;47.814;11.134;2022-11-21T07:45:12;5.50;86.60
1812;DHT22;904;47.814;11.134;2022-11-21T07:47:40;5.30;87.30
1812;DHT22;904;47.814;11.134;2022-11-21T07:50:09;5.10;88.10
1812;DHT22;904;47.814;11.134;2022-11-21T07:52:36;5.10;89.30
1812;DHT22;904;47.814;11.134;2022-11-21T07:55:04;5.00;90.30
1812;DHT22;904;47.814;11.134;2022-11-21T07:57:36;4.90;90.70
1812;DHT22;904;47.814;11.134;2022-11-21T08:00:04;4.90;91.10
1812;DHT22;904;47.814;11.134;2022-11-21T08:02:31;4.90;91.20
1812;DHT22;904;47.814;11.134;2022-11-21T08:04:58;4.80;91.10
1812;DHT22;904;47.814;11.134;2022-11-21T08:07:25;4.70;91.50
1812;DHT22;904;47.814;11.134;2022-11-21T08:09:52;4.80;92.10
1812;DHT22;904;47.814;11.134;2022-11-21T08:12:19;4.90;92.00
1812;DHT22;904;47.814;11.134;2022-11-21T08:14:47;5.00;92.10
1812;DHT22;904;47.814;11.134;2022-11-21T08:17:14;5.00;92.50
1812;DHT22;904;47.814;11.134;2022-11-21T08:19:43;5.10;92.80
1812;DHT22;904;47.814;11.134;2022-11-21T08:22:10;5.30;92.80
1812;DHT22;904;47.814;11.134;2022-11-21T08:24:36;5.40;91.20
1812;DHT22;904;47.814;11.134;2022-11-21T08:27:03;5.40;91.00
1812;DHT22;904;47.814;11.134;2022-11-21T08:29:30;5.60;91.00
1812;DHT22;904;47.814;11.134;2022-11-21T08:31:59;6.20;92.30
1812;DHT22;904;47.814;11.134;2022-11-21T08:34:26;7.10;91.40
1812;DHT22;904;47.814;11.134;2022-11-21T08:36:56;8.10;90.20
1812;DHT22;904;47.814;11.134;2022-11-21T08:39:24;9.10;84.90
1812;DHT22;904;47.814;11.134;2022-11-21T08:41:52;10.00;79.90
1812;DHT22;904;47.814;11.134;2022-11-21T08:44:28;10.60;74.90
1812;DHT22;904;47.814;11.134;2022-11-21T08:46:55;11.50;74.10
1812;DHT22;904;47.814;11.134;2022-11-21T08:49:24;12.30;68.10
1812;DHT22;904;47.814;11.134;2022-11-21T08:51:51;12.70;66.50
1812;DHT22;904;47.814;11.134;2022-11-21T08:54:19;12.70;62.70
1812;DHT22;904;47.814;11.134;2022-11-21T08:56:47;12.80;60.20
1812;DHT22;904;47.814;11.134;2022-11-21T08:59:14;12.90;61.30
1812;DHT22;904;47.814;11.134;2022-11-21T09:01:41;13.30;59.40
1812;DHT22;904;47.814;11.134;2022-11-21T09:04:09;13.60;61.30
1812;DHT22;904;47.814;11.134;2022-11-21T09:06:37;13.70;57.90
1812;DHT22;904;47.814;11.134;2022-11-21T09:09:05;13.30;57.10
1812;DHT22;904;47.814;11.134;2022-11-21T09:11:32;13.40;58.30
1812;DHT22;904;47.814;11.134;2022-11-21T09:13:59;13.80;55.70
1812;DHT22;904;47.814;11.134;2022-11-21T09:16:43;14.00;56.00
1812;DHT22;904;47.814;11.134;2022-11-21T09:19:27;14.50;55.20
1812;DHT22;904;47.814;11.134;2022-11-21T09:21:56;14.60;53.10
1812;DHT22;904;47.814;11.134;2022-11-21T09:24:23;13.90;52.40
1812;DHT22;904;47.814;11.134;2022-11-21T09:26:50;13.30;53.20
1812;DHT22;904;47.814;11.134;2022-11-21T09:29:17;12.70;53.80
1812;DHT22;904;47.814;11.134;2022-11-21T09:31:44;11.90;55.00
1812;DHT22;904;47.814;11.134;2022-11-21T09:34:11;11.30;56.30
1812;DHT22;904;47.814;11.134;2022-11-21T09:36:38;10.80;57.50
1812;DHT22;904;47.814;11.134;2022-11-21T09:39:06;10.50;59.10
1812;DHT22;904;47.814;11.134;2022-11-21T09:41:39;10.30;60.40
1812;DHT22;904;47.814;11.134;2022-11-21T09:47:19;9.90;63.70
1812;DHT22;904;47.814;11.134;2022-11-21T09:49:49;10.00;63.50
1812;DHT22;904;47.814;11.134;2022-11-21T09:52:21;10.20;63.10
1812;DHT22;904;47.814;11.134;2022-11-21T09:54:55;10.40;62.60
1812;DHT22;904;47.814;11.134;2022-11-21T09:57:24;10.40;61.70
1812;DHT22;904;47.814;11.134;2022-11-21T09:59:52;10.30;61.10
1812;DHT22;904;47.814;11.134;2022-11-21T10:02:21;10.20;62.90
1812;DHT22;904;47.814;11.134;2022-11-21T10:04:50;10.90;64.10
1812;DHT22;904;47.814;11.134;2022-11-21T10:07:23;12.00;61.60
1812;DHT22;904;47.814;11.134;2022-11-21T10:10:16;13.40;57.90
1812;DHT22;904;47.814;11.134;2022-11-21T10:12:57;14.50;54.60
1812;DHT22;904;47.814;11.134;2022-11-21T10:15:40;15.00;51.00
1812;DHT22;904;47.814;11.134;2022-11-21T10:21:31;14.50;51.70
1812;DHT22;904;47.814;11.134;2022-11-21T10:24:18;14.20;52.30
1812;DHT22;904;47.814;11.134;2022-11-21T10:26:50;14.10;53.00
1812;DHT22;904;47.814;11.134;2022-11-21T10:29:21;13.80;51.30
1812;DHT22;904;47.814;11.134;2022-11-21T10:31:50;13.30;51.30
1812;DHT22;904;47.814;11.134;2022-11-21T10:34:24;12.90;52.10
1812;DHT22;904;47.814;11.134;2022-11-21T10:36:56;12.50;53.40
1812;DHT22;904;47.814;11.134;2022-11-21T10:39:30;12.50;54.00
1812;DHT22;904;47.814;11.134;2022-11-21T10:42:03;12.50;54.00
1812;DHT22;904;47.814;11.134;2022-11-21T10:44:31;12.20;53.60
1812;DHT22;904;47.814;11.134;2022-11-21T10:47:17;11.90;54.80
1812;DHT22;904;47.814;11.134;2022-11-21T10:49:56;11.50;55.60
1812;DHT22;904;47.814;11.134;2022-11-21T10:52:26;11.10;56.30
1812;DHT22;904;47.814;11.134;2022-11-21T10:55:07;10.80;57.70
1812;DHT22;904;47.814;11.134;2022-11-21T10:57:43;10.50;58.70
1812;DHT22;904;47.814;11.134;2022-11-21T11:00:16;10.20;58.80
1812;DHT22;904;47.814;11.134;2022-11-21T11:02:59;10.10;59.70
1812;DHT22;904;47.814;11.134;2022-11-21T11:05:30;10.30;61.30
1812;DHT22;904;47.814;11.134;2022-11-21T11:07:59;10.30;61.90
1812;DHT22;904;47.814;11.134;2022-11-21T11:10:27;10.30;60.40
1812;DHT22;904;47.814;11.134;2022-11-21T11:12:56;10.30;60.90
1812;DHT22;904;47.814;11.134;2022-11-21T11:16:01;10.10;61.30
1812;DHT22;904;47.814;11.134;2022-11-21T11:18:30;9.90;63.30
1812;DHT22;904;47.814;11.134;2022-11-21T11:21:17;9.80;64.40
1812;DHT22;904;47.814;11.134;2022-11-21T11:23:45;9.60;65.50
1812;DHT22;904;47.814;11.134;2022-11-21T11:26:30;9.40;66.00
1812;DHT22;904;47.814;11.134;2022-11-21T11:29:08;9.30;67.40
1812;DHT22;904;47.814;11.134;2022-11-21T11:31:42;9.60;69.00
1812;DHT22;904;47.814;11.134;2022-11-21T11:34:12;9.90;68.10
1812;DHT22;904;47.814;11.134;2022-11-21T11:36:52;10.00;65.10
1812;DHT22;904;47.814;11.134;2022-11-21T11:39:31;10.10;65.40
1812;DHT22;904;47.814;11.134;2022-11-21T11:42:16;10.10;64.50
1812;DHT22;904;47.814;11.134;2022-11-21T11:45:14;10.00;64.60
1812;DHT22;904;47.814;11.134;2022-11-21T11:48:00;10.10;65.20
1812;DHT22;904;47.814;11.134;2022-11-21T11:50:31;9.90;64.20
1812;DHT22;904;47.814;11.134;2022-11-21T11:53:05;9.70;65.80
1812;DHT22;904;47.814;11.134;2022-11-21T11:55:37;9.70;65.70
1812;DHT22;904;47.814;11.134;2022-11-21T11:58:12;9.40;66.20
1812;DHT22;904;47.814;11.134;2022-11-21T12:00:47;9.40;67.40
1812;DHT22;904;47.814;11.134;2022-11-21T12:03:18;9.90;70.60
1812;DHT22;904;47.814;11.134;2022-11-21T12:05:55;11.00;67.60
1812;DHT22;904;47.814;11.134;2022-11-21T12:08:29;12.30;63.80
1812;DHT22;904;47.814;11.134;2022-11-21T12:11:06;13.50;60.50
1812;DHT22;904;47.814;11.134;2022-11-21T12:13:54;14.70;57.10
1812;DHT22;904;47.814;11.134;2022-11-21T12:16:24;15.40;52.20
1812;DHT22;904;47.814;11.134;2022-11-21T12:18:57;15.70;52.20
1812;DHT22;904;47.814;11.134;2022-11-21T12:21:25;15.80;50.40
1812;DHT22;904;47.814;11.134;2022-11-21T12:23:54;15.80;49.70
1812;DHT22;904;47.814;11.134;2022-11-21T12:26:33;15.60;49.10
1812;DHT22;904;47.814;11.134;2022-11-21T12:29:10;15.70;49.10
1812;DHT22;904;47.814;11.134;2022-11-21T12:31:53;15.60;48.10
1812;DHT22;904;47.814;11.134;2022-11-21T12:34:35;15.40;48.50
1812;DHT22;904;47.814;11.134;2022-11-21T12:37:09;15.30;48.10
1812;DHT22;904;47.814;11.134;2022-11-21T12:39:59;15.40;48.30
1812;DHT22;904;47.814;11.134;2022-11-21T12:42:39;15.80;49.20
1812;DHT22;904;47.814;11.134;2022-11-21T12:45:28;16.20;47.70
1812;DHT22;904;47.814;11.134;2022-11-21T12:48:30;16.60;47.40
1812;DHT22;904;47.814;11.134;2022-11-21T12:54:57;16.50;46.10
1812;DHT22;904;47.814;11.134;2022-11-21T12:57:34;16.00;45.30
1812;DHT22;904;47.814;11.134;2022-11-21T13:00:10;15.30;45.30
1812;DHT22;904;47.814;11.134;2022-11-21T13:02:52;14.70;47.50
1812;DHT22;904;47.814;11.134;2022-11-21T13:05:30;14.30;48.10
1812;DHT22;904;47.814;11.134;2022-11-21T13:08:05;13.90;49.40
1812;DHT22;904;47.814;11.134;2022-11-21T13:10:32;13.50;49.80
1812;DHT22;904;47.814;11.134;2022-11-21T13:13:08;13.20;50.40
1812;DHT22;904;47.814;11.134;2022-11-21T13:15:52;12.90;50.80
1812;DHT22;904;47.814;11.134;2022-11-21T13:18:24;12.60;51.70
1812;DHT22;904;47.814;11.134;2022-11-21T13:20:55;12.30;52.90
1812;DHT22;904;47.814;11.134;2022-11-21T13:23:39;12.10;52.70
1812;DHT22;904;47.814;11.134;2022-11-21T13:26:46;11.90;54.90
1812;DHT22;904;47.814;11.134;2022-11-21T13:29:17;11.80;54.20
1812;DHT22;904;47.814;11.134;2022-11-21T13:31:44;11.70;55.10
1812;DHT22;904;47.814;11.134;2022-11-21T13:34:35;11.80;56.60
1812;DHT22;904;47.814;11.134;2022-11-21T13:37:08;12.10;55.90
1812;DHT22;904;47.814;11.134;2022-11-21T13:39:41;12.20;55.30
1812;DHT22;904;47.814;11.134;2022-11-21T13:42:12;12.10;56.30
1812;DHT22;904;47.814;11.134;2022-11-21T13:48:33;11.60;55.30
1812;DHT22;904;47.814;11.134;2022-11-21T13:51:38;11.40;58.30
1812;DHT22;904;47.814;11.134;2022-11-21T13:54:34;11.10;58.70
1812;DHT22;904;47.814;11.134;2022-11-21T13:57:17;10.60;59.70
1812;DHT22;904;47.814;11.134;2022-11-21T13:59:58;10.50;60.30
1812;DHT22;904;47.814;11.134;2022-11-21T14:05:52;10.60;60.40
1812;DHT22;904;47.814;11.134;2022-11-21T14:08:24;10.60;60.30
1812;DHT22;904;47.814;11.134;2022-11-21T14:10:55;10.50;60.00
1812;DHT22;904;47.814;11.134;2022-11-21T14:13:27;10.30;60.50
1812;DHT22;904;47.814;11.134;2022-11-21T14:16:09;10.20;60.00
1812;DHT22;904;47.814;11.134;2022-11-21T14:18:42;10.00;59.90
1812;DHT22;904;47.814;11.134;2022-11-21T14:21:19;9.60;62.40
1812;DHT22;904;47.814;11.134;2022-11-21T14:23:53;9.50;63.60
1812;DHT22;904;47.814;11.134;2022-11-21T14:26:24;9.40;64.50
1812;DHT22;904;47.814;11.134;2022-11-21T14:28:54;9.30;65.40
1812;DHT22;904;47.814;11.134;2022-11-21T14:31:45;9.20;65.60
1812;DHT22;904;47.814;11.134;2022-11-21T14:34:27;9.10;66.60
1812;DHT22;904;47.814;11.134;2022-11-21T14:36:57;8.90;68.40
1812;DHT22;904;47.814;11.134;2022-11-21T14:39:27;8.70;69.10
1812;DHT22;904;47.814;11.134;2022-11-21T14:41:57;8.70;69.80
1812;DHT22;904;47.814;11.134;2022-11-21T14:44:27;8.60;71.10
1812;DHT22;904;47.814;11.134;2022-11-21T14:47:11;8.40;72.90
1812;DHT22;904;47.814;11.134;2022-11-21T14:49:48;8.30;74.30
1812;DHT22;904;47.814;11.134;2022-11-21T14:52:17;8.20;74.90
1812;DHT22;904;47.814;11.134;2022-11-21T14:54:49;8.00;76.20
1812;DHT22;904;47.814;11.134;2022-11-21T14:57:23;7.90;76.90
1812;DHT22;904;47.814;11.134;2022-11-21T14:59:56;7.80;77.90
1812;DHT22;904;47.814;11.134;2022-11-21T15:02:25;7.70;78.60
1812;DHT22;904;47.814;11.134;2022-11-21T15:04:54;7.50;79.10
1812;DHT22;904;47.814;11.134;2022-11-21T15:07:38;7.50;79.40
1812;DHT22;904;47.814;11.134;2022-11-21T15:10:10;7.40;80.10
1812;DHT22;904;47.814;11.134;2022-11-21T15:12:43;7.30;80.60
1812;DHT22;904;47.814;11.134;2022-11-21T15:15:24;7.20;80.60
1812;DHT22;904;47.814;11.134;2022-11-21T15:17:55;7.20;81.00
1812;DHT22;904;47.814;11.134;2022-11-21T15:20:24;7.10;81.10
1812;DHT22;904;47.814;11.134;2022-11-21T15:22:54;7.10;82.20
1812;DHT22;904;47.814;11.134;2022-11-21T15:25:23;7.00;82.20
1812;DHT22;904;47.814;11.134;2022-11-21T15:28:13;7.00;82.20
1812;DHT22;904;47.814;11.134;2022-11-21T15:30:46;6.90;83.40
1812;DHT22;904;47.814;11.134;2022-11-21T15:33:14;6.80;84.30
1812;DHT22;904;47.814;11.134;2022-11-21T15:35:50;6.70;84.40
1812;DHT22;904;47.814;11.134;2022-11-21T15:38:25;6.60;85.50
1812;DHT22;904;47.814;11.134;2022-11-21T15:41:04;6.40;86.50
1812;DHT22;904;47.814;11.134;2022-11-21T15:43:43;6.40;86.70
1812;DHT22;904;47.814;11.134;2022-11-21T15:46:16;6.30;86.60
1812;DHT22;904;47.814;11.134;2022-11-21T15:48:53;6.30;86.40
1812;DHT22;904;47.814;11.134;2022-11-21T15:51:22;6.30;86.70
1812;DHT22;904;47.814;11.134;2022-11-21T15:53:54;6.30;86.80
1812;DHT22;904;47.814;11.134;2022-11-21T15:56:27;6.20;86.50
1812;DHT22;904;47.814;11.134;2022-11-21T15:58:55;6.20;86.40
1812;DHT22;904;47.814;11.134;2022-11-21T16:01:24;6.30;86.20
1812;DHT22;904;47.814;11.134;2022-11-21T16:03:53;6.20;85.50
1812;DHT22;904;47.814;11.134;2022-11-21T16:06:29;6.30;85.30
1812;DHT22;904;47.814;11.134;2022-11-21T16:09:01;6.30;84.80
1812;DHT22;904;47.814;11.134;2022-11-21T16:11:35;6.20;84.50
1812;DHT22;904;47.814;11.134;2022-11-21T16:14:06;6.20;84.60
1812;DHT22;904;47.814;11.134;2022-11-21T16:16:38;6.20;84.20
1812;DHT22;904;47.814;11.134;2022-11-21T16:19:12;6.20;84.90
1812;DHT22;904;47.814;11.134;2022-11-21T16:21:42;6.20;85.20
1812;DHT22;904;47.814;11.134;2022-11-21T16:24:11;6.10;86.00
1812;DHT22;904;47.814;11.134;2022-11-21T16:26:38;6.10;85.50
1812;DHT22;904;47.814;11.134;2022-11-21T16:29:09;6.00;85.50
1812;DHT22;904;47.814;11.134;2022-11-21T16:31:39;6.00;85.60
1812;DHT22;904;47.814;11.134;2022-11-21T16:34:07;6.00;85.60
1812;DHT22;904;47.814;11.134;2022-11-21T16:36:35;5.90;86.00
1812;DHT22;904;47.814;11.134;2022-11-21T16:39:03;5.70;86.70
1812;DHT22;904;47.814;11.134;2022-11-21T16:41:34;5.60;87.40
1812;DHT22;904;47.814;11.134;2022-11-21T16:44:12;5.60;87.50
1812;DHT22;904;47.814;11.134;2022-11-21T16:46:41;5.60;87.50
1812;DHT22;904;47.814;11.134;2022-11-21T16:49:14;5.60;87.70
1812;DHT22;904;47.814;11.134;2022-11-21T16:51:49;5.60;87.70
1812;DHT22;904;47.814;11.134;2022-11-21T16:54:21;5.50;87.80
1812;DHT22;904;47.814;11.134;2022-11-21T16:56:50;5.50;87.90
1812;DHT22;904;47.814;11.134;2022-11-21T16:59:19;5.50;87.70